sensor_id;sensor_type;location;lat;lon;timestamp;temperature;humidity
40756;DHT22;26461;45.630;9.418;2023-02-15T00:01:20;8.90;86.40
40756;DHT22;26461;45.630;9.418;2023-02-15T00:04:30;8.90;86.40
40756;DHT22;26461;45.630;9.418;2023-02-15T00:07:55;8.90;86.70
40756;DHT22;26461;45.630;9.418;2023-02-15T00:11:10;9.00;86.80
40756;DHT22;26461;45.630;9.418;2023-02-15T00:14:22;8.90;86.80
40756;DHT22;26461;45.630;9.418;2023-02-15T00:17:33;8.80;86.80
40756;DHT22;26461;45.630;9.418;2023-02-15T00:20:42;8.80;86.60
40756;DHT22;26461;45.630;9.418;2023-02-15T00:23:52;8.70;86.70
40756;DHT22;26461;45.630;9.418;2023-02-15T00:27:02;8.70;86.90
40756;DHT22;26461;45.630;9.418;2023-02-15T00:30:07;8.60;87.00
40756;DHT22;26461;45.630;9.418;2023-02-15T00:33:18;8.60;87.10
40756;DHT22;26461;45.630;9.418;2023-02-15T00:36:28;8.50;86.90
40756;DHT22;26461;45.630;9.418;2023-02-15T00:39:37;8.40;86.90
40756;DHT22;26461;45.630;9.418;2023-02-15T00:42:47;8.50;86.90
40756;DHT22;26461;45.630;9.418;2023-02-15T00:45:57;8.50;86.80
40756;DHT22;26461;45.630;9.418;2023-02-15T00:49:07;8.50;86.60
40756;DHT22;26461;45.630;9.418;2023-02-15T00:52:17;8.50;86.70
40756;DHT22;26461;45.630;9.418;2023-02-15T00:55:27;8.40;86.60
40756;DHT22;26461;45.630;9.418;2023-02-15T00:58:36;8.40;86.60
40756;DHT22;26461;45.630;9.418;2023-02-15T01:01:46;8.30;86.80
40756;DHT22;26461;45.630;9.418;2023-02-15T01:04:57;8.30;86.70
40756;DHT22;26461;45.630;9.418;2023-02-15T01:08:07;8.20;86.80
40756;DHT22;26461;45.630;9.418;2023-02-15T01:11:19;8.20;86.90
40756;DHT22;26461;45.630;9.418;2023-02-15T01:14:30;8.20;86.90
40756;DHT22;26461;45.630;9.418;2023-02-15T01:17:42;8.20;87.20
40756;DHT22;26461;45.630;9.418;2023-02-15T01:20:53;8.20;87.50
40756;DHT22;26461;45.630;9.418;2023-02-15T01:24:04;8.20;87.70
40756;DHT22;26461;45.630;9.418;2023-02-15T01:27:16;8.20;87.60
40756;DHT22;26461;45.630;9.418;2023-02-15T01:30:27;8.30;87.80
40756;DHT22;26461;45.630;9.418;2023-02-15T01:33:37;8.30;87.70
40756;DHT22;26461;45.630;9.418;2023-02-15T01:36:47;8.40;87.90
40756;DHT22;26461;45.630;9.418;2023-02-15T01:39:58;8.40;87.60
40756;DHT22;26461;45.630;9.418;2023-02-15T01:43:11;8.40;87.50
40756;DHT22;26461;45.630;9.418;2023-02-15T01:46:43;8.40;87.50
40756;DHT22;26461;45.630;9.418;2023-02-15T01:50:12;8.30;87.50
40756;DHT22;26461;45.630;9.418;2023-02-15T01:53:37;8.30;87.30
40756;DHT22;26461;45.630;9.418;2023-02-15T01:56:49;8.30;87.10
40756;DHT22;26461;45.630;9.418;2023-02-15T02:00:01;8.30;87.10
40756;DHT22;26461;45.630;9.418;2023-02-15T02:03:16;8.30;87.20
40756;DHT22;26461;45.630;9.418;2023-02-15T02:06:28;8.20;87.30
40756;DHT22;26461;45.630;9.418;2023-02-15T02:09:38;8.20;87.10
40756;DHT22;26461;45.630;9.418;2023-02-15T02:12:50;8.20;87.40
40756;DHT22;26461;45.630;9.418;2023-02-15T02:16:18;8.00;87.10
40756;DHT22;26461;45.630;9.418;2023-02-15T02:33:39;7.70;87.90
40756;DHT22;26461;45.630;9.418;2023-02-15T02:44:07;7.60;88.50
40756;DHT22;26461;45.630;9.418;2023-02-15T02:50:48;7.50;88.50
40756;DHT22;26461;45.630;9.418;2023-02-15T02:54:01;7.50;88.70
40756;DHT22;26461;45.630;9.418;2023-02-15T02:57:14;7.50;89.50
40756;DHT22;26461;45.630;9.418;2023-02-15T03:00:26;7.50;88.80
40756;DHT22;26461;45.630;9.418;2023-02-15T03:06:52;7.40;89.20
40756;DHT22;26461;45.630;9.418;2023-02-15T03:10:05;7.30;89.50
40756;DHT22;26461;45.630;9.418;2023-02-15T03:13:16;7.30;89.70
40756;DHT22;26461;45.630;9.418;2023-02-15T03:16:27;7.20;89.90
40756;DHT22;26461;45.630;9.418;2023-02-15T03:19:38;7.20;89.90
40756;DHT22;26461;45.630;9.418;2023-02-15T03:22:53;7.20;90.00
40756;DHT22;26461;45.630;9.418;2023-02-15T03:26:06;7.20;90.00
40756;DHT22;26461;45.630;9.418;2023-02-15T03:29:19;7.20;90.10
40756;DHT22;26461;45.630;9.418;2023-02-15T03:32:31;7.10;90.10
40756;DHT22;26461;45.630;9.418;2023-02-15T03:35:54;7.20;90.10
40756;DHT22;26461;45.630;9.418;2023-02-15T03:42:25;7.20;90.20
40756;DHT22;26461;45.630;9.418;2023-02-15T03:45:31;7.20;90.10
40756;DHT22;26461;45.630;9.418;2023-02-15T03:48:46;7.30;90.10
40756;DHT22;26461;45.630;9.418;2023-02-15T03:51:58;7.20;90.10
40756;DHT22;26461;45.630;9.418;2023-02-15T03:55:09;7.20;90.10
40756;DHT22;26461;45.630;9.418;2023-02-15T03:58:19;7.30;90.10
40756;DHT22;26461;45.630;9.418;2023-02-15T04:05:10;7.30;90.00
40756;DHT22;26461;45.630;9.418;2023-02-15T04:08:20;7.30;90.10
40756;DHT22;26461;45.630;9.418;2023-02-15T04:11:30;8.20;90.20
40756;DHT22;26461;45.630;9.418;2023-02-15T04:14:40;7.20;89.90
40756;DHT22;26461;45.630;9.418;2023-02-15T04:18:03;7.20;89.90
40756;DHT22;26461;45.630;9.418;2023-02-15T04:21:08;7.20;89.90
40756;DHT22;26461;45.630;9.418;2023-02-15T04:24:37;7.20;89.70
40756;DHT22;26461;45.630;9.418;2023-02-15T04:28:05;7.20;89.60
40756;DHT22;26461;45.630;9.418;2023-02-15T04:31:16;7.20;89.40
40756;DHT22;26461;45.630;9.418;2023-02-15T04:34:27;7.20;89.50
40756;DHT22;26461;45.630;9.418;2023-02-15T04:37:38;7.30;89.50
40756;DHT22;26461;45.630;9.418;2023-02-15T04:40:51;7.30;89.50
40756;DHT22;26461;45.630;9.418;2023-02-15T04:44:01;7.40;89.50
40756;DHT22;26461;45.630;9.418;2023-02-15T04:47:11;7.40;90.20
40756;DHT22;26461;45.630;9.418;2023-02-15T04:50:21;7.40;89.70
40756;DHT22;26461;45.630;9.418;2023-02-15T04:53:31;7.40;89.70
40756;DHT22;26461;45.630;9.418;2023-02-15T04:56:41;7.40;89.70
40756;DHT22;26461;45.630;9.418;2023-02-15T04:59:51;7.40;89.80
40756;DHT22;26461;45.630;9.418;2023-02-15T05:03:02;7.40;89.70
40756;DHT22;26461;45.630;9.418;2023-02-15T05:06:12;7.40;89.70
40756;DHT22;26461;45.630;9.418;2023-02-15T05:09:21;7.30;89.70
40756;DHT22;26461;45.630;9.418;2023-02-15T05:12:31;7.30;89.50
40756;DHT22;26461;45.630;9.418;2023-02-15T05:15:36;7.30;89.50
40756;DHT22;26461;45.630;9.418;2023-02-15T05:18:46;7.30;89.30
40756;DHT22;26461;45.630;9.418;2023-02-15T05:21:55;7.30;89.30
40756;DHT22;26461;45.630;9.418;2023-02-15T05:25:05;7.20;89.10
40756;DHT22;26461;45.630;9.418;2023-02-15T05:28:35;7.30;89.80
40756;DHT22;26461;45.630;9.418;2023-02-15T05:31:46;7.20;88.90
40756;DHT22;26461;45.630;9.418;2023-02-15T05:34:57;7.30;88.90
40756;DHT22;26461;45.630;9.418;2023-02-15T05:38:07;7.30;88.80
40756;DHT22;26461;45.630;9.418;2023-02-15T05:41:17;7.30;88.70
40756;DHT22;26461;45.630;9.418;2023-02-15T05:44:27;7.30;88.60
40756;DHT22;26461;45.630;9.418;2023-02-15T05:47:37;7.30;88.60
40756;DHT22;26461;45.630;9.418;2023-02-15T05:50:57;7.30;88.70
40756;DHT22;26461;45.630;9.418;2023-02-15T05:54:07;7.40;89.00
40756;DHT22;26461;45.630;9.418;2023-02-15T05:57:17;7.30;89.00
40756;DHT22;26461;45.630;9.418;2023-02-15T06:00:27;7.30;89.50
40756;DHT22;26461;45.630;9.418;2023-02-15T06:03:36;7.20;89.70
40756;DHT22;26461;45.630;9.418;2023-02-15T06:06:46;7.20;89.80
40756;DHT22;26461;45.630;9.418;2023-02-15T06:09:56;7.10;90.00
40756;DHT22;26461;45.630;9.418;2023-02-15T06:13:06;7.10;90.10
40756;DHT22;26461;45.630;9.418;2023-02-15T06:16:17;7.00;90.30
40756;DHT22;26461;45.630;9.418;2023-02-15T06:19:23;7.00;90.30
40756;DHT22;26461;45.630;9.418;2023-02-15T06:22:28;7.00;90.40
40756;DHT22;26461;45.630;9.418;2023-02-15T06:25:38;7.00;90.50
40756;DHT22;26461;45.630;9.418;2023-02-15T06:28:48;7.00;90.50
40756;DHT22;26461;45.630;9.418;2023-02-15T06:31:58;7.00;90.40
40756;DHT22;26461;45.630;9.418;2023-02-15T06:35:08;7.00;90.30
40756;DHT22;26461;45.630;9.418;2023-02-15T06:38:19;6.90;90.00
40756;DHT22;26461;45.630;9.418;2023-02-15T06:41:30;6.80;90.40
40756;DHT22;26461;45.630;9.418;2023-02-15T06:44:39;6.80;90.20
40756;DHT22;26461;45.630;9.418;2023-02-15T06:47:49;6.70;90.30
40756;DHT22;26461;45.630;9.418;2023-02-15T06:50:59;6.70;90.30
40756;DHT22;26461;45.630;9.418;2023-02-15T06:54:09;6.70;90.50
40756;DHT22;26461;45.630;9.418;2023-02-15T06:57:19;6.70;90.50
40756;DHT22;26461;45.630;9.418;2023-02-15T07:00:29;6.70;90.60
40756;DHT22;26461;45.630;9.418;2023-02-15T07:03:39;6.80;90.70
40756;DHT22;26461;45.630;9.418;2023-02-15T07:06:49;6.70;90.70
40756;DHT22;26461;45.630;9.418;2023-02-15T07:09:59;6.70;90.60
40756;DHT22;26461;45.630;9.418;2023-02-15T07:13:09;6.70;90.60
40756;DHT22;26461;45.630;9.418;2023-02-15T07:16:19;6.80;90.90
40756;DHT22;26461;45.630;9.418;2023-02-15T07:19:29;6.90;90.80
40756;DHT22;26461;45.630;9.418;2023-02-15T07:22:39;7.00;90.80
40756;DHT22;26461;45.630;9.418;2023-02-15T07:25:59;7.10;90.70
40756;DHT22;26461;45.630;9.418;2023-02-15T07:29:09;7.20;90.50
40756;DHT22;26461;45.630;9.418;2023-02-15T07:32:19;7.30;90.40
40756;DHT22;26461;45.630;9.418;2023-02-15T07:35:28;7.40;90.40
40756;DHT22;26461;45.630;9.418;2023-02-15T07:38:40;7.40;90.30
40756;DHT22;26461;45.630;9.418;2023-02-15T07:41:50;7.50;90.20
40756;DHT22;26461;45.630;9.418;2023-02-15T07:45:07;7.50;90.50
40756;DHT22;26461;45.630;9.418;2023-02-15T07:48:17;7.60;90.40
40756;DHT22;26461;45.630;9.418;2023-02-15T07:51:28;7.60;90.30
40756;DHT22;26461;45.630;9.418;2023-02-15T07:54:37;7.70;90.30
40756;DHT22;26461;45.630;9.418;2023-02-15T07:57:49;7.70;90.30
40756;DHT22;26461;45.630;9.418;2023-02-15T08:00:59;7.80;90.30
40756;DHT22;26461;45.630;9.418;2023-02-15T08:04:11;7.90;90.30
40756;DHT22;26461;45.630;9.418;2023-02-15T08:07:21;7.90;90.30
40756;DHT22;26461;45.630;9.418;2023-02-15T08:10:31;8.00;90.20
40756;DHT22;26461;45.630;9.418;2023-02-15T08:14:13;8.10;90.20
40756;DHT22;26461;45.630;9.418;2023-02-15T08:17:23;8.20;90.30
40756;DHT22;26461;45.630;9.418;2023-02-15T08:20:33;8.30;90.30
40756;DHT22;26461;45.630;9.418;2023-02-15T08:23:42;8.40;90.30
40756;DHT22;26461;45.630;9.418;2023-02-15T08:26:53;8.50;90.20
40756;DHT22;26461;45.630;9.418;2023-02-15T08:30:01;8.60;90.30
40756;DHT22;26461;45.630;9.418;2023-02-15T08:33:11;8.70;90.30
40756;DHT22;26461;45.630;9.418;2023-02-15T08:36:23;8.70;89.70
40756;DHT22;26461;45.630;9.418;2023-02-15T08:39:34;8.80;89.40
40756;DHT22;26461;45.630;9.418;2023-02-15T08:42:44;8.90;89.30
40756;DHT22;26461;45.630;9.418;2023-02-15T08:45:49;9.00;89.40
40756;DHT22;26461;45.630;9.418;2023-02-15T08:48:59;9.00;89.30
40756;DHT22;26461;45.630;9.418;2023-02-15T08:52:10;9.10;89.60
40756;DHT22;26461;45.630;9.418;2023-02-15T08:55:19;9.10;89.70
40756;DHT22;26461;45.630;9.418;2023-02-15T08:58:30;9.20;90.00
40756;DHT22;26461;45.630;9.418;2023-02-15T09:01:40;9.30;90.20
40756;DHT22;26461;45.630;9.418;2023-02-15T09:04:50;9.30;90.00
40756;DHT22;26461;45.630;9.418;2023-02-15T09:08:01;9.40;89.70
40756;DHT22;26461;45.630;9.418;2023-02-15T09:11:28;9.50;89.20
40756;DHT22;26461;45.630;9.418;2023-02-15T09:14:39;9.50;88.40
40756;DHT22;26461;45.630;9.418;2023-02-15T09:17:49;9.60;88.20
40756;DHT22;26461;45.630;9.418;2023-02-15T09:21:10;9.70;88.60
40756;DHT22;26461;45.630;9.418;2023-02-15T09:24:22;9.70;89.90
40756;DHT22;26461;45.630;9.418;2023-02-15T09:27:33;9.90;90.10
40756;DHT22;26461;45.630;9.418;2023-02-15T09:30:43;10.00;90.20
40756;DHT22;26461;45.630;9.418;2023-02-15T09:33:53;10.00;90.00
40756;DHT22;26461;45.630;9.418;2023-02-15T09:37:05;10.10;89.90
40756;DHT22;26461;45.630;9.418;2023-02-15T09:40:18;10.20;90.00
40756;DHT22;26461;45.630;9.418;2023-02-15T09:50:55;10.40;89.20
40756;DHT22;26461;45.630;9.418;2023-02-15T09:54:27;10.40;89.00
40756;DHT22;26461;45.630;9.418;2023-02-15T10:08:30;10.60;87.50
40756;DHT22;26461;45.630;9.418;2023-02-15T10:12:08;10.70;87.80
40756;DHT22;26461;45.630;9.418;2023-02-15T10:19:11;10.90;88.20
40756;DHT22;26461;45.630;9.418;2023-02-15T10:26:21;11.00;88.10
40756;DHT22;26461;45.630;9.418;2023-02-15T10:29:37;11.00;87.60
40756;DHT22;26461;45.630;9.418;2023-02-15T10:32:59;11.10;87.50
40756;DHT22;26461;45.630;9.418;2023-02-15T10:40:04;11.10;86.60
40756;DHT22;26461;45.630;9.418;2023-02-15T10:43:32;11.30;86.90
40756;DHT22;26461;45.630;9.418;2023-02-15T10:50:26;11.40;85.90
40756;DHT22;26461;45.630;9.418;2023-02-15T11:01:18;11.70;85.40
40756;DHT22;26461;45.630;9.418;2023-02-15T11:08:18;11.80;84.90
40756;DHT22;26461;45.630;9.418;2023-02-15T11:11:32;11.90;84.60
40756;DHT22;26461;45.630;9.418;2023-02-15T11:14:54;11.90;84.20
40756;DHT22;26461;45.630;9.418;2023-02-15T11:18:15;12.00;84.00
40756;DHT22;26461;45.630;9.418;2023-02-15T11:24:43;12.10;83.20
40756;DHT22;26461;45.630;9.418;2023-02-15T11:27:55;12.20;83.10
40756;DHT22;26461;45.630;9.418;2023-02-15T11:31:41;12.30;82.80
40756;DHT22;26461;45.630;9.418;2023-02-15T11:38:26;12.40;82.30
40756;DHT22;26461;45.630;9.418;2023-02-15T11:41:41;12.50;81.90
40756;DHT22;26461;45.630;9.418;2023-02-15T11:45:16;12.50;81.80
40756;DHT22;26461;45.630;9.418;2023-02-15T11:48:31;12.60;81.80
40756;DHT22;26461;45.630;9.418;2023-02-15T11:51:41;12.60;81.40
40756;DHT22;26461;45.630;9.418;2023-02-15T11:54:52;12.70;81.40
40756;DHT22;26461;45.630;9.418;2023-02-15T12:01:42;12.80;80.70
40756;DHT22;26461;45.630;9.418;2023-02-15T12:04:58;12.90;80.00
40756;DHT22;26461;45.630;9.418;2023-02-15T12:08:19;13.00;80.00
40756;DHT22;26461;45.630;9.418;2023-02-15T12:11:35;13.10;80.60
40756;DHT22;26461;45.630;9.418;2023-02-15T12:14:54;13.20;81.10
40756;DHT22;26461;45.630;9.418;2023-02-15T12:18:05;13.40;80.70
40756;DHT22;26461;45.630;9.418;2023-02-15T12:21:40;13.50;80.10
40756;DHT22;26461;45.630;9.418;2023-02-15T12:24:53;13.60;79.50
40756;DHT22;26461;45.630;9.418;2023-02-15T12:28:05;13.70;78.50
40756;DHT22;26461;45.630;9.418;2023-02-15T12:31:31;13.80;78.30
40756;DHT22;26461;45.630;9.418;2023-02-15T12:34:42;13.90;78.50
40756;DHT22;26461;45.630;9.418;2023-02-15T12:41:23;14.10;76.20
40756;DHT22;26461;45.630;9.418;2023-02-15T12:44:35;14.20;75.00
40756;DHT22;26461;45.630;9.418;2023-02-15T12:47:47;14.40;74.90
40756;DHT22;26461;45.630;9.418;2023-02-15T12:51:08;14.50;79.40
40756;DHT22;26461;45.630;9.418;2023-02-15T12:57:34;14.80;80.00
40756;DHT22;26461;45.630;9.418;2023-02-15T13:00:44;14.90;77.40
40756;DHT22;26461;45.630;9.418;2023-02-15T13:04:04;14.90;77.10
40756;DHT22;26461;45.630;9.418;2023-02-15T13:07:15;15.00;76.00
40756;DHT22;26461;45.630;9.418;2023-02-15T13:10:32;15.10;73.80
40756;DHT22;26461;45.630;9.418;2023-02-15T13:13:54;15.10;72.40
40756;DHT22;26461;45.630;9.418;2023-02-15T13:17:04;15.20;72.30
40756;DHT22;26461;45.630;9.418;2023-02-15T13:20:20;15.20;71.80
40756;DHT22;26461;45.630;9.418;2023-02-15T13:23:34;15.30;71.60
40756;DHT22;26461;45.630;9.418;2023-02-15T13:26:45;15.40;72.20
40756;DHT22;26461;45.630;9.418;2023-02-15T13:29:58;15.50;72.70
40756;DHT22;26461;45.630;9.418;2023-02-15T13:36:34;15.70;71.60
40756;DHT22;26461;45.630;9.418;2023-02-15T13:40:20;15.80;71.20
40756;DHT22;26461;45.630;9.418;2023-02-15T13:51:00;16.20;69.40
40756;DHT22;26461;45.630;9.418;2023-02-15T13:58:20;16.40;68.60
40756;DHT22;26461;45.630;9.418;2023-02-15T14:01:49;16.50;68.20
40756;DHT22;26461;45.630;9.418;2023-02-15T14:16:08;16.90;66.50
40756;DHT22;26461;45.630;9.418;2023-02-15T14:19:39;17.10;66.00
40756;DHT22;26461;45.630;9.418;2023-02-15T14:26:50;17.30;65.60
40756;DHT22;26461;45.630;9.418;2023-02-15T14:30:00;17.40;64.80
40756;DHT22;26461;45.630;9.418;2023-02-15T14:36:25;17.60;64.00
40756;DHT22;26461;45.630;9.418;2023-02-15T14:39:52;17.70;63.80
40756;DHT22;26461;45.630;9.418;2023-02-15T14:43:51;17.80;64.10
40756;DHT22;26461;45.630;9.418;2023-02-15T14:47:11;17.90;63.90
40756;DHT22;26461;45.630;9.418;2023-02-15T14:53:43;18.10;63.30
40756;DHT22;26461;45.630;9.418;2023-02-15T15:00:36;18.30;62.80
40756;DHT22;26461;45.630;9.418;2023-02-15T15:03:52;18.30;63.30
40756;DHT22;26461;45.630;9.418;2023-02-15T15:07:22;18.40;62.30
40756;DHT22;26461;45.630;9.418;2023-02-15T15:10:45;18.40;62.00
40756;DHT22;26461;45.630;9.418;2023-02-15T15:13:57;18.50;61.60
40756;DHT22;26461;45.630;9.418;2023-02-15T15:17:12;18.60;61.30
40756;DHT22;26461;45.630;9.418;2023-02-15T15:23:43;18.70;60.60
40756;DHT22;26461;45.630;9.418;2023-02-15T15:34:21;18.70;60.80
40756;DHT22;26461;45.630;9.418;2023-02-15T15:47:52;18.80;60.50
40756;DHT22;26461;45.630;9.418;2023-02-15T15:51:31;18.80;60.10
40756;DHT22;26461;45.630;9.418;2023-02-15T15:54:43;18.80;61.20
40756;DHT22;26461;45.630;9.418;2023-02-15T15:58:05;18.80;60.40
40756;DHT22;26461;45.630;9.418;2023-02-15T16:01:16;18.80;60.30
40756;DHT22;26461;45.630;9.418;2023-02-15T16:04:34;18.70;60.20
40756;DHT22;26461;45.630;9.418;2023-02-15T16:07:44;18.70;60.30
40756;DHT22;26461;45.630;9.418;2023-02-15T16:10:55;18.70;60.40
40756;DHT22;26461;45.630;9.418;2023-02-15T16:14:15;18.70;60.30
40756;DHT22;26461;45.630;9.418;2023-02-15T16:17:27;18.60;60.40
40756;DHT22;26461;45.630;9.418;2023-02-15T16:20:41;18.60;60.80
40756;DHT22;26461;45.630;9.418;2023-02-15T16:27:38;18.50;60.60
40756;DHT22;26461;45.630;9.418;2023-02-15T16:31:20;18.30;60.30
40756;DHT22;26461;45.630;9.418;2023-02-15T16:34:29;18.20;61.30
40756;DHT22;26461;45.630;9.418;2023-02-15T16:37:42;18.00;60.60
40756;DHT22;26461;45.630;9.418;2023-02-15T16:40:52;17.70;60.80
40756;DHT22;26461;45.630;9.418;2023-02-15T16:44:10;17.50;61.30
40756;DHT22;26461;45.630;9.418;2023-02-15T16:47:29;17.20;61.70
40756;DHT22;26461;45.630;9.418;2023-02-15T16:50:40;17.00;62.30
40756;DHT22;26461;45.630;9.418;2023-02-15T16:53:52;16.80;63.00
40756;DHT22;26461;45.630;9.418;2023-02-15T16:57:03;16.60;63.40
40756;DHT22;26461;45.630;9.418;2023-02-15T17:00:19;16.40;64.00
40756;DHT22;26461;45.630;9.418;2023-02-15T17:03:30;16.20;64.60
40756;DHT22;26461;45.630;9.418;2023-02-15T17:06:40;16.00;65.00
40756;DHT22;26461;45.630;9.418;2023-02-15T17:09:55;15.90;65.30
40756;DHT22;26461;45.630;9.418;2023-02-15T17:13:02;15.70;65.70
40756;DHT22;26461;45.630;9.418;2023-02-15T17:16:26;15.60;66.10
40756;DHT22;26461;45.630;9.418;2023-02-15T17:19:52;15.50;66.60
40756;DHT22;26461;45.630;9.418;2023-02-15T17:23:03;15.40;67.10
40756;DHT22;26461;45.630;9.418;2023-02-15T17:26:29;15.30;67.60
40756;DHT22;26461;45.630;9.418;2023-02-15T17:29:39;15.20;67.90
40756;DHT22;26461;45.630;9.418;2023-02-15T17:32:59;15.10;68.20
40756;DHT22;26461;45.630;9.418;2023-02-15T17:36:19;15.00;68.60
40756;DHT22;26461;45.630;9.418;2023-02-15T17:39:32;14.90;69.00
40756;DHT22;26461;45.630;9.418;2023-02-15T17:42:41;14.80;69.30
40756;DHT22;26461;45.630;9.418;2023-02-15T17:45:52;14.70;69.90
40756;DHT22;26461;45.630;9.418;2023-02-15T17:49:03;14.60;70.00
40756;DHT22;26461;45.630;9.418;2023-02-15T17:52:11;14.50;70.40
40756;DHT22;26461;45.630;9.418;2023-02-15T17:55:23;14.40;70.70
40756;DHT22;26461;45.630;9.418;2023-02-15T17:58:48;14.40;71.20
40756;DHT22;26461;45.630;9.418;2023-02-15T18:01:57;14.30;71.50
40756;DHT22;26461;45.630;9.418;2023-02-15T18:05:26;14.20;71.80
40756;DHT22;26461;45.630;9.418;2023-02-15T18:08:55;14.10;72.30
40756;DHT22;26461;45.630;9.418;2023-02-15T18:12:32;14.00;72.40
40756;DHT22;26461;45.630;9.418;2023-02-15T18:15:41;14.00;72.90
40756;DHT22;26461;45.630;9.418;2023-02-15T18:18:52;13.90;73.10
40756;DHT22;26461;45.630;9.418;2023-02-15T18:22:11;13.80;73.40
40756;DHT22;26461;45.630;9.418;2023-02-15T18:25:19;13.70;73.80
40756;DHT22;26461;45.630;9.418;2023-02-15T18:28:29;13.70;74.00
40756;DHT22;26461;45.630;9.418;2023-02-15T18:31:39;13.60;74.40
40756;DHT22;26461;45.630;9.418;2023-02-15T18:34:57;13.60;74.60
40756;DHT22;26461;45.630;9.418;2023-02-15T18:38:08;13.50;74.70
40756;DHT22;26461;45.630;9.418;2023-02-15T18:41:22;13.40;75.00
40756;DHT22;26461;45.630;9.418;2023-02-15T18:44:32;13.30;75.20
40756;DHT22;26461;45.630;9.418;2023-02-15T18:47:44;13.30;75.30
40756;DHT22;26461;45.630;9.418;2023-02-15T18:50:54;13.10;75.70
40756;DHT22;26461;45.630;9.418;2023-02-15T18:54:04;13.20;75.90
40756;DHT22;26461;45.630;9.418;2023-02-15T18:57:16;13.10;76.20
40756;DHT22;26461;45.630;9.418;2023-02-15T19:00:32;13.00;76.50
40756;DHT22;26461;45.630;9.418;2023-02-15T19:03:47;13.00;76.70
40756;DHT22;26461;45.630;9.418;2023-02-15T19:06:57;12.90;76.70
40756;DHT22;26461;45.630;9.418;2023-02-15T19:10:20;12.90;76.80
40756;DHT22;26461;45.630;9.418;2023-02-15T19:13:30;12.90;76.90
40756;DHT22;26461;45.630;9.418;2023-02-15T19:16:40;12.90;77.10
40756;DHT22;26461;45.630;9.418;2023-02-15T19:19:51;12.90;77.10
40756;DHT22;26461;45.630;9.418;2023-02-15T19:23:02;12.80;77.50
40756;DHT22;26461;45.630;9.418;2023-02-15T19:26:12;12.80;77.60
40756;DHT22;26461;45.630;9.418;2023-02-15T19:29:26;12.90;77.60
40756;DHT22;26461;45.630;9.418;2023-02-15T19:32:35;12.80;77.60
40756;DHT22;26461;45.630;9.418;2023-02-15T19:35:48;12.70;77.60
40756;DHT22;26461;45.630;9.418;2023-02-15T19:39:00;12.70;77.60
40756;DHT22;26461;45.630;9.418;2023-02-15T19:42:20;12.60;77.80
40756;DHT22;26461;45.630;9.418;2023-02-15T19:45:31;12.50;78.10
40756;DHT22;26461;45.630;9.418;2023-02-15T19:48:41;12.40;79.10
40756;DHT22;26461;45.630;9.418;2023-02-15T19:51:51;12.30;79.30
40756;DHT22;26461;45.630;9.418;2023-02-15T19:55:02;12.20;79.70
40756;DHT22;26461;45.630;9.418;2023-02-15T19:58:12;12.10;79.00
40756;DHT22;26461;45.630;9.418;2023-02-15T20:01:23;12.00;79.30
40756;DHT22;26461;45.630;9.418;2023-02-15T20:04:33;11.90;79.60
40756;DHT22;26461;45.630;9.418;2023-02-15T20:07:45;11.90;79.90
40756;DHT22;26461;45.630;9.418;2023-02-15T20:10:56;11.80;79.80
40756;DHT22;26461;45.630;9.418;2023-02-15T20:14:12;11.80;80.50
40756;DHT22;26461;45.630;9.418;2023-02-15T20:17:22;11.70;80.30
40756;DHT22;26461;45.630;9.418;2023-02-15T20:20:44;11.60;80.70
40756;DHT22;26461;45.630;9.418;2023-02-15T20:23:55;11.60;80.80
40756;DHT22;26461;45.630;9.418;2023-02-15T20:27:00;11.50;80.90
40756;DHT22;26461;45.630;9.418;2023-02-15T20:30:16;11.50;81.20
40756;DHT22;26461;45.630;9.418;2023-02-15T20:33:27;11.50;81.30
40756;DHT22;26461;45.630;9.418;2023-02-15T20:36:38;11.50;81.40
40756;DHT22;26461;45.630;9.418;2023-02-15T20:39:49;11.50;81.90
40756;DHT22;26461;45.630;9.418;2023-02-15T20:42:59;11.50;81.90
40756;DHT22;26461;45.630;9.418;2023-02-15T20:46:09;11.40;82.10
40756;DHT22;26461;45.630;9.418;2023-02-15T20:49:20;11.40;82.50
40756;DHT22;26461;45.630;9.418;2023-02-15T20:52:30;11.40;82.50
40756;DHT22;26461;45.630;9.418;2023-02-15T20:55:40;11.30;82.60
40756;DHT22;26461;45.630;9.418;2023-02-15T20:58:51;11.30;82.70
40756;DHT22;26461;45.630;9.418;2023-02-15T21:02:15;11.20;82.80
40756;DHT22;26461;45.630;9.418;2023-02-15T21:05:28;11.20;83.10
40756;DHT22;26461;45.630;9.418;2023-02-15T21:08:42;11.20;83.30
40756;DHT22;26461;45.630;9.418;2023-02-15T21:11:53;11.10;83.30
40756;DHT22;26461;45.630;9.418;2023-02-15T21:15:38;11.00;83.70
40756;DHT22;26461;45.630;9.418;2023-02-15T21:18:48;11.00;84.20
40756;DHT22;26461;45.630;9.418;2023-02-15T21:21:58;11.00;84.40
40756;DHT22;26461;45.630;9.418;2023-02-15T21:28:35;10.90;84.90
40756;DHT22;26461;45.630;9.418;2023-02-15T21:31:45;10.80;85.00
40756;DHT22;26461;45.630;9.418;2023-02-15T21:34:55;10.80;85.30
40756;DHT22;26461;45.630;9.418;2023-02-15T21:38:06;10.80;85.50
40756;DHT22;26461;45.630;9.418;2023-02-15T21:41:16;10.70;85.60
40756;DHT22;26461;45.630;9.418;2023-02-15T21:44:45;10.70;85.90
40756;DHT22;26461;45.630;9.418;2023-02-15T21:48:13;10.70;86.20
40756;DHT22;26461;45.630;9.418;2023-02-15T21:51:23;10.50;86.20
40756;DHT22;26461;45.630;9.418;2023-02-15T21:54:51;10.60;86.40
40756;DHT22;26461;45.630;9.418;2023-02-15T21:58:01;10.60;86.80
40756;DHT22;26461;45.630;9.418;2023-02-15T22:01:23;10.60;86.80
40756;DHT22;26461;45.630;9.418;2023-02-15T22:04:33;10.50;86.90
40756;DHT22;26461;45.630;9.418;2023-02-15T22:07:44;10.50;86.80
40756;DHT22;26461;45.630;9.418;2023-02-15T22:10:54;10.40;86.80
40756;DHT22;26461;45.630;9.418;2023-02-15T22:14:04;10.40;86.80
40756;DHT22;26461;45.630;9.418;2023-02-15T22:17:24;10.40;86.90
40756;DHT22;26461;45.630;9.418;2023-02-15T22:20:34;10.40;86.90
40756;DHT22;26461;45.630;9.418;2023-02-15T22:23:44;10.40;86.80
40756;DHT22;26461;45.630;9.418;2023-02-15T22:26:55;10.40;86.80
40756;DHT22;26461;45.630;9.418;2023-02-15T22:33:34;10.40;86.70
40756;DHT22;26461;45.630;9.418;2023-02-15T22:36:43;10.40;86.30
40756;DHT22;26461;45.630;9.418;2023-02-15T22:39:53;10.40;86.10
40756;DHT22;26461;45.630;9.418;2023-02-15T22:43:04;10.40;85.90
40756;DHT22;26461;45.630;9.418;2023-02-15T22:46:16;10.40;85.70
40756;DHT22;26461;45.630;9.418;2023-02-15T22:49:27;10.40;85.60
40756;DHT22;26461;45.630;9.418;2023-02-15T22:52:37;10.40;85.40
40756;DHT22;26461;45.630;9.418;2023-02-15T22:55:47;10.30;85.20
40756;DHT22;26461;45.630;9.418;2023-02-15T22:59:02;10.30;85.20
40756;DHT22;26461;45.630;9.418;2023-02-15T23:02:14;10.30;84.90
40756;DHT22;26461;45.630;9.418;2023-02-15T23:05:29;10.30;85.00
40756;DHT22;26461;45.630;9.418;2023-02-15T23:08:39;10.30;85.00
40756;DHT22;26461;45.630;9.418;2023-02-15T23:11:51;10.20;84.80
40756;DHT22;26461;45.630;9.418;2023-02-15T23:15:01;10.20;84.70
40756;DHT22;26461;45.630;9.418;2023-02-15T23:21:31;10.20;84.30
40756;DHT22;26461;45.630;9.418;2023-02-15T23:24:44;10.20;83.90